createdAt,value
2023-01-19T00:00:39.074Z,59.99
2023-01-19T00:03:25.177Z,61.70
2023-01-19T00:05:52.011Z,63.63
2023-01-19T00:08:18.947Z,63.60
2023-01-19T00:10:50.529Z,62.89
2023-01-19T00:13:17.677Z,62.31
2023-01-19T00:15:44.595Z,62.34
2023-01-19T00:18:11.664Z,61.98
2023-01-19T00:20:39.807Z,61.63
2023-01-19T00:23:07.405Z,61.31
2023-01-19T00:25:34.622Z,61.03
2023-01-19T00:28:01.942Z,61.14
2023-01-19T00:30:29.563Z,61.24
2023-01-19T00:32:56.395Z,61.45
2023-01-19T00:35:23.122Z,61.35
2023-01-19T00:37:50.275Z,61.69
2023-01-19T00:40:17.731Z,61.76
2023-01-19T00:42:45.388Z,61.86
2023-01-19T00:45:21.907Z,62.07
2023-01-19T00:47:56.215Z,62.21
2023-01-19T00:50:24.839Z,62.20
2023-01-19T00:52:53.346Z,62.53
2023-01-19T00:55:20.318Z,62.39
2023-01-19T00:57:47.230Z,62.56
2023-01-19T01:00:16.943Z,63.13
2023-01-19T01:02:48.671Z,63.74
2023-01-19T01:05:16.192Z,61.63
2023-01-19T01:07:46.478Z,60.69
2023-01-19T01:10:19.576Z,60.40
2023-01-19T01:12:54.822Z,60.40
2023-01-19T01:15:29.308Z,60.82
2023-01-19T01:17:56.259Z,62.49
2023-01-19T01:20:29.671Z,60.50
2023-01-19T01:22:57.370Z,57.94
2023-01-19T01:25:26.433Z,56.52
2023-01-19T01:27:54.073Z,57.56
2023-01-19T01:30:21.416Z,58.81
2023-01-19T01:32:48.525Z,60.57
2023-01-19T01:35:15.743Z,63.05
2023-01-19T01:37:42.804Z,66.06
2023-01-19T01:40:15.258Z,63.13
2023-01-19T01:42:42.372Z,61.15
2023-01-19T01:45:27.672Z,61.02
2023-01-19T01:48:00.890Z,56.81
2023-01-19T01:50:31.361Z,55.34
2023-01-19T01:53:06.512Z,56.08
2023-01-19T01:55:40.809Z,56.95
2023-01-19T01:58:09.954Z,58.53
2023-01-19T02:00:57.253Z,59.78
2023-01-19T02:03:25.584Z,61.09
2023-01-19T02:05:58.582Z,63.91
2023-01-19T02:08:53.740Z,65.70
2023-01-19T02:11:39.844Z,65.28
2023-01-19T02:14:06.994Z,62.12
2023-01-19T02:16:35.720Z,57.75
2023-01-19T02:19:08.155Z,55.23
2023-01-19T02:21:48.620Z,55.55
2023-01-19T02:24:15.655Z,56.63
2023-01-19T02:26:46.273Z,58.49
2023-01-19T02:29:15.828Z,59.75
2023-01-19T02:31:43.110Z,60.82
2023-01-19T02:34:12.346Z,62.91
2023-01-19T02:36:41.568Z,65.26
2023-01-19T02:39:10.578Z,63.86
2023-01-19T02:41:45.702Z,61.40
2023-01-19T02:44:14.673Z,58.25
2023-01-19T02:46:41.636Z,56.13
2023-01-19T02:49:08.432Z,56.85
2023-01-19T02:51:35.708Z,57.76
2023-01-19T02:54:11.676Z,58.59
2023-01-19T02:56:45.789Z,60.09
2023-01-19T02:59:32.893Z,60.39
2023-01-19T03:02:14.076Z,60.59
2023-01-19T03:04:53.002Z,63.62
2023-01-19T03:07:35.014Z,65.43
2023-01-19T03:10:20.069Z,63.96
2023-01-19T03:12:54.172Z,61.76
2023-01-19T03:15:40.502Z,58.52
2023-01-19T03:18:10.411Z,55.95
2023-01-19T03:20:39.587Z,57.26
2023-01-19T03:23:09.915Z,57.67
2023-01-19T03:25:42.152Z,58.31
2023-01-19T03:28:09.576Z,59.73
2023-01-19T03:30:41.825Z,60.42
2023-01-19T03:33:16.323Z,62.87
2023-01-19T03:35:48.684Z,65.48
2023-01-19T03:38:19.048Z,64.43
2023-01-19T03:40:47.015Z,64.94
2023-01-19T03:43:16.052Z,58.56
2023-01-19T03:45:43.750Z,55.43
2023-01-19T03:48:10.932Z,55.78
2023-01-19T03:50:37.844Z,56.39
2023-01-19T03:53:12.522Z,56.87
2023-01-19T03:55:42.896Z,57.97
2023-01-19T03:58:09.592Z,59.47
2023-01-19T04:00:37.300Z,60.32
2023-01-19T04:03:05.410Z,60.69
2023-01-19T04:05:32.581Z,61.32
2023-01-19T04:08:00.180Z,63.87
2023-01-19T04:10:27.259Z,66.26
2023-01-19T04:12:58.385Z,64.49
2023-01-19T04:15:25.724Z,61.57
2023-01-19T04:17:52.973Z,58.69
2023-01-19T04:20:21.049Z,56.80
2023-01-19T04:22:49.059Z,57.16
2023-01-19T04:25:15.970Z,58.31
2023-01-19T04:27:42.802Z,59.04
2023-01-19T04:30:10.387Z,60.03
2023-01-19T04:32:37.056Z,60.31
2023-01-19T04:35:04.331Z,61.36
2023-01-19T04:37:30.971Z,62.88
2023-01-19T04:39:57.602Z,66.40
2023-01-19T04:42:24.249Z,65.29
2023-01-19T04:44:52.031Z,62.52
2023-01-19T04:47:19.135Z,58.39
2023-01-19T04:49:45.775Z,55.21
2023-01-19T04:52:12.557Z,55.30
2023-01-19T04:54:39.396Z,56.26
2023-01-19T04:57:06.140Z,57.20
2023-01-19T04:59:33.135Z,57.70
2023-01-19T05:02:00.083Z,58.14
2023-01-19T05:04:27.091Z,58.97
2023-01-19T05:06:53.925Z,60.54
2023-01-19T05:09:20.821Z,61.25
2023-01-19T05:11:47.480Z,63.27
2023-01-19T05:14:14.089Z,65.77
2023-01-19T05:16:41.431Z,64.21
2023-01-19T05:19:08.445Z,60.36
2023-01-19T05:21:35.207Z,56.46
2023-01-19T05:24:02.429Z,56.22
2023-01-19T05:26:29.081Z,56.71
2023-01-19T05:28:56.143Z,57.51
2023-01-19T05:31:22.995Z,58.35
2023-01-19T05:33:49.901Z,59.77
2023-01-19T05:36:16.780Z,60.20
2023-01-19T05:38:43.514Z,60.60
2023-01-19T05:41:10.224Z,61.15
2023-01-19T05:43:37.421Z,63.41
2023-01-19T05:46:04.937Z,66.57
2023-01-19T05:48:32.010Z,65.20
2023-01-19T05:50:59.847Z,62.30
2023-01-19T05:53:28.018Z,58.79
2023-01-19T05:56:07.111Z,55.56
2023-01-19T05:58:35.263Z,55.34
2023-01-19T06:01:04.920Z,57.21
2023-01-19T06:03:33.456Z,57.16
2023-01-19T06:06:00.600Z,57.81
2023-01-19T06:08:27.587Z,58.88
2023-01-19T06:10:54.297Z,59.55
2023-01-19T06:13:21.109Z,61.03
2023-01-19T06:15:48.003Z,62.65
2023-01-19T06:18:14.742Z,64.43
2023-01-19T06:20:41.620Z,64.13
2023-01-19T06:23:09.955Z,62.12
2023-01-19T06:25:36.944Z,58.43
2023-01-19T06:28:03.883Z,55.55
2023-01-19T06:30:30.702Z,55.43
2023-01-19T06:32:57.613Z,56.35
2023-01-19T06:35:24.612Z,57.51
2023-01-19T06:37:52.478Z,58.70
2023-01-19T06:40:19.733Z,59.27
2023-01-19T06:42:48.213Z,60.11
2023-01-19T06:45:14.978Z,60.75
2023-01-19T06:47:41.997Z,62.58
2023-01-19T06:50:09.457Z,65.66
2023-01-19T06:52:41.676Z,65.50
2023-01-19T06:55:12.235Z,62.33
2023-01-19T06:57:39.747Z,59.07
2023-01-19T07:00:08.498Z,56.83
2023-01-19T07:02:36.377Z,56.75
2023-01-19T07:05:06.045Z,57.33
2023-01-19T07:07:32.827Z,57.96
2023-01-19T07:09:59.493Z,58.91
2023-01-19T07:12:26.513Z,59.45
2023-01-19T07:14:53.355Z,60.01
2023-01-19T07:17:20.193Z,60.94
2023-01-19T07:19:47.136Z,62.85
2023-01-19T07:22:14.147Z,65.13
2023-01-19T07:24:41.144Z,65.32
2023-01-19T07:27:08.093Z,63.84
2023-01-19T07:29:34.814Z,61.51
2023-01-19T07:32:01.734Z,59.32
2023-01-19T07:34:28.804Z,56.75
2023-01-19T07:36:56.156Z,56.52
2023-01-19T07:39:22.808Z,57.09
2023-01-19T07:41:49.388Z,57.60
2023-01-19T07:44:16.186Z,58.20
2023-01-19T07:46:43.178Z,58.90
2023-01-19T07:49:10.924Z,59.51
2023-01-19T07:51:37.621Z,59.96
2023-01-19T07:54:04.280Z,60.58
2023-01-19T07:56:33.652Z,61.30
2023-01-19T07:59:00.708Z,62.79
2023-01-19T08:01:29.068Z,66.15
2023-01-19T08:03:56.347Z,66.83
2023-01-19T08:06:26.589Z,64.59
2023-01-19T08:08:53.532Z,62.31
2023-01-19T08:11:20.861Z,57.67
2023-01-19T08:13:47.600Z,55.59
2023-01-19T08:16:14.439Z,56.14
2023-01-19T08:18:41.926Z,56.05
2023-01-19T08:21:08.737Z,57.20
2023-01-19T08:23:35.584Z,57.64
2023-01-19T08:26:37.340Z,58.24
2023-01-19T08:29:06.330Z,58.15
2023-01-19T08:31:33.615Z,59.31
2023-01-19T08:34:01.784Z,59.86
2023-01-19T08:36:29.014Z,60.29
2023-01-19T08:38:55.839Z,60.62
2023-01-19T08:41:22.578Z,61.13
2023-01-19T08:43:49.636Z,62.98
2023-01-19T08:46:16.915Z,67.17
2023-01-19T08:48:50.168Z,66.80
2023-01-19T08:51:17.546Z,64.67
2023-01-19T08:53:44.696Z,60.05
2023-01-19T08:56:13.412Z,55.80
2023-01-19T08:58:42.573Z,54.97
2023-01-19T09:01:10.353Z,55.86
2023-01-19T09:03:37.197Z,56.68
2023-01-19T09:06:07.555Z,57.76
2023-01-19T09:08:34.492Z,57.84
2023-01-19T09:11:01.974Z,58.36
2023-01-19T09:13:28.747Z,58.76
2023-01-19T09:15:55.451Z,59.86
2023-01-19T09:18:22.446Z,60.23
2023-01-19T09:20:49.988Z,60.46
2023-01-19T09:23:19.605Z,60.83
2023-01-19T09:25:47.570Z,63.05
2023-01-19T09:28:16.952Z,66.51
2023-01-19T09:30:44.719Z,65.44
2023-01-19T09:33:14.751Z,63.65
2023-01-19T09:35:42.673Z,59.67
2023-01-19T09:38:10.072Z,55.61
2023-01-19T09:40:43.172Z,54.81
2023-01-19T09:43:31.805Z,55.21
2023-01-19T09:46:02.137Z,55.49
2023-01-19T09:49:07.929Z,56.38
2023-01-19T09:51:39.084Z,57.13
2023-01-19T09:54:13.871Z,57.57
2023-01-19T09:56:41.935Z,58.14
2023-01-19T09:59:29.697Z,58.36
2023-01-19T10:02:12.722Z,58.24
2023-01-19T10:04:51.011Z,58.51
2023-01-19T10:07:40.781Z,58.86
2023-01-19T10:10:20.287Z,59.14
2023-01-19T10:12:59.800Z,59.58
2023-01-19T10:15:40.429Z,59.85
2023-01-19T10:18:12.610Z,59.51
2023-01-19T10:20:59.281Z,60.22
2023-01-19T10:23:34.512Z,61.64
2023-01-19T10:26:09.882Z,60.38
2023-01-19T10:28:38.360Z,60.08
2023-01-19T10:31:07.085Z,60.21
2023-01-19T10:33:34.707Z,60.17
2023-01-19T10:36:29.468Z,60.00
2023-01-19T10:38:57.374Z,59.34
2023-01-19T10:41:30.015Z,59.62
2023-01-19T10:44:04.770Z,59.91
2023-01-19T10:46:43.073Z,59.95
2023-01-19T10:49:38.431Z,59.69
2023-01-19T10:52:28.815Z,59.96
2023-01-19T10:54:56.143Z,59.52
2023-01-19T10:57:34.189Z,59.26
2023-01-19T11:00:01.576Z,59.19
2023-01-19T11:02:30.775Z,58.62
2023-01-19T11:05:20.589Z,58.25
2023-01-19T11:07:47.709Z,57.94
2023-01-19T11:10:20.170Z,57.76
2023-01-19T11:13:12.153Z,57.61
2023-01-19T11:16:03.618Z,57.23
2023-01-19T11:18:34.102Z,57.45
2023-01-19T11:21:06.323Z,57.74
2023-01-19T11:23:41.492Z,56.76
2023-01-19T11:26:15.631Z,56.61
2023-01-19T11:28:47.357Z,56.53
2023-01-19T11:31:14.181Z,56.35
2023-01-19T11:33:47.685Z,55.88
2023-01-19T11:36:20.586Z,55.25
2023-01-19T11:38:50.058Z,54.98
2023-01-19T11:41:46.123Z,55.21
2023-01-19T11:44:21.364Z,54.86
2023-01-19T11:46:59.451Z,55.09
2023-01-19T11:49:43.760Z,55.15
2023-01-19T11:52:22.953Z,55.23
2023-01-19T11:55:30.764Z,55.14
2023-01-19T11:57:58.525Z,54.76
2023-01-19T12:00:37.043Z,53.60
2023-01-19T12:03:21.154Z,53.64
2023-01-19T12:05:54.691Z,53.32
2023-01-19T12:08:26.745Z,54.13
2023-01-19T12:10:56.897Z,54.70
2023-01-19T12:13:25.861Z,53.20
2023-01-19T12:16:09.944Z,53.71
2023-01-19T12:18:43.262Z,53.78
2023-01-19T12:21:10.255Z,53.02
2023-01-19T12:23:48.758Z,53.21
2023-01-19T12:26:15.702Z,52.86
2023-01-19T12:28:46.749Z,52.27
2023-01-19T12:31:19.287Z,53.19
2023-01-19T12:33:46.781Z,53.43
2023-01-19T12:36:16.730Z,53.51
2023-01-19T12:38:52.294Z,53.85
2023-01-19T12:41:29.043Z,52.97
2023-01-19T12:44:11.300Z,53.31
2023-01-19T12:46:45.398Z,53.25
2023-01-19T12:49:33.058Z,52.33
2023-01-19T12:52:17.001Z,53.15
2023-01-19T12:54:49.785Z,52.36
2023-01-19T12:57:25.928Z,52.51
2023-01-19T13:00:02.968Z,53.45
2023-01-19T13:02:42.633Z,52.97
2023-01-19T13:05:11.665Z,53.84
2023-01-19T13:08:10.868Z,53.83
2023-01-19T13:11:12.650Z,53.98
2023-01-19T13:13:41.578Z,53.99
2023-01-19T13:16:21.670Z,54.08
2023-01-19T13:19:05.715Z,53.94
2023-01-19T13:21:45.075Z,54.16
2023-01-19T13:24:17.229Z,53.67
2023-01-19T13:26:50.126Z,53.36
2023-01-19T13:29:39.771Z,53.10
2023-01-19T13:32:18.947Z,53.31
2023-01-19T13:34:51.187Z,54.89
2023-01-19T13:37:21.462Z,53.08
2023-01-19T13:39:52.555Z,52.41
2023-01-19T13:42:38.200Z,52.10
2023-01-19T13:45:25.859Z,49.95
2023-01-19T13:47:55.156Z,49.95
2023-01-19T13:50:26.336Z,48.72
2023-01-19T13:52:55.091Z,48.05
2023-01-19T13:55:23.210Z,47.40
2023-01-19T13:57:51.068Z,47.60
2023-01-19T14:00:19.833Z,47.21
2023-01-19T14:03:12.592Z,46.90
2023-01-19T14:05:41.652Z,47.31
2023-01-19T14:08:10.669Z,47.18
2023-01-19T14:10:46.649Z,46.94
2023-01-19T14:13:16.803Z,47.27
2023-01-19T14:15:44.876Z,48.09
2023-01-19T14:18:17.584Z,48.46
2023-01-19T14:21:07.482Z,48.75
2023-01-19T14:23:54.890Z,49.23
2023-01-19T14:26:55.829Z,49.86
2023-01-19T14:29:29.545Z,50.12
2023-01-19T14:32:11.122Z,50.60
2023-01-19T14:34:45.761Z,50.97
2023-01-19T14:37:26.310Z,51.49
2023-01-19T14:40:10.562Z,51.97
2023-01-19T14:42:46.003Z,52.35
2023-01-19T14:45:37.642Z,52.81
2023-01-19T14:48:11.739Z,53.27
2023-01-19T14:50:42.829Z,53.97
2023-01-19T14:53:16.623Z,54.37
2023-01-19T14:55:51.887Z,55.09
2023-01-19T14:58:21.047Z,55.53
2023-01-19T15:00:49.179Z,56.11
2023-01-19T15:03:16.347Z,56.47
2023-01-19T15:05:45.954Z,56.94
2023-01-19T15:08:18.558Z,57.28
2023-01-19T15:10:45.887Z,57.66
2023-01-19T15:13:20.117Z,57.97
2023-01-19T15:15:49.156Z,58.11
2023-01-19T15:18:20.411Z,58.54
2023-01-19T15:20:47.183Z,59.02
2023-01-19T15:23:13.918Z,59.46
2023-01-19T15:25:40.689Z,59.68
2023-01-19T15:28:18.794Z,59.95
2023-01-19T15:30:45.820Z,59.99
2023-01-19T15:33:24.162Z,60.06
2023-01-19T15:35:52.305Z,60.32
2023-01-19T15:38:19.306Z,60.64
2023-01-19T15:40:51.163Z,60.99
2023-01-19T15:43:18.703Z,61.20
2023-01-19T15:46:00.366Z,62.94
2023-01-19T15:48:27.250Z,64.10
2023-01-19T15:50:54.248Z,67.05
2023-01-19T15:53:23.552Z,67.45
2023-01-19T15:55:52.292Z,61.52
2023-01-19T15:58:20.385Z,58.51
2023-01-19T16:00:55.649Z,54.84
2023-01-19T16:03:23.727Z,54.12
2023-01-19T16:05:50.834Z,55.00
2023-01-19T16:08:17.807Z,55.94
2023-01-19T16:10:44.677Z,56.95
2023-01-19T16:13:11.773Z,58.15
2023-01-19T16:15:39.674Z,59.13
2023-01-19T16:18:06.554Z,59.91
2023-01-19T16:20:33.872Z,60.77
2023-01-19T16:23:14.570Z,64.01
2023-01-19T16:25:42.821Z,66.34
2023-01-19T16:28:09.908Z,64.92
2023-01-19T16:30:36.613Z,64.13
2023-01-19T16:33:04.766Z,60.65
2023-01-19T16:35:31.708Z,56.18
2023-01-19T16:37:58.401Z,52.17
2023-01-19T16:40:25.562Z,53.19
2023-01-19T16:42:52.200Z,54.59
2023-01-19T16:45:18.877Z,55.99
2023-01-19T16:47:49.800Z,57.01
2023-01-19T16:50:16.668Z,58.44
2023-01-19T16:52:44.425Z,59.49
2023-01-19T16:55:11.665Z,60.16
2023-01-19T16:57:39.139Z,60.73
2023-01-19T17:00:08.705Z,64.04
2023-01-19T17:02:36.069Z,70.02
2023-01-19T17:05:03.448Z,67.63
2023-01-19T17:07:30.139Z,65.13
2023-01-19T17:09:56.934Z,59.26
2023-01-19T17:12:23.821Z,54.83
2023-01-19T17:14:50.621Z,54.43
2023-01-19T17:17:17.484Z,55.87
2023-01-19T17:19:44.807Z,57.58
2023-01-19T17:22:12.809Z,58.93
2023-01-19T17:24:42.022Z,59.82
2023-01-19T17:27:09.259Z,61.51
2023-01-19T17:29:36.394Z,66.01
2023-01-19T17:32:03.826Z,70.25
2023-01-19T17:34:30.629Z,68.47
2023-01-19T17:37:02.238Z,65.12
2023-01-19T17:39:29.504Z,59.95
2023-01-19T17:41:56.635Z,54.91
2023-01-19T17:44:23.575Z,54.34
2023-01-19T17:46:50.618Z,55.15
2023-01-19T17:49:17.546Z,56.37
2023-01-19T17:51:44.930Z,57.05
2023-01-19T17:54:13.500Z,58.36
2023-01-19T17:56:40.827Z,59.26
2023-01-19T17:59:07.943Z,60.11
2023-01-19T18:01:40.035Z,64.24
2023-01-19T18:04:08.344Z,69.10
2023-01-19T18:06:36.339Z,67.07
2023-01-19T18:09:04.496Z,63.86
2023-01-19T18:11:31.843Z,58.87
2023-01-19T18:14:00.162Z,54.13
2023-01-19T18:16:28.816Z,53.62
2023-01-19T18:18:56.532Z,54.21
2023-01-19T18:21:26.720Z,55.17
2023-01-19T18:24:00.797Z,56.07
2023-01-19T18:26:29.087Z,56.88
2023-01-19T18:28:56.739Z,57.91
2023-01-19T18:31:25.061Z,58.74
2023-01-19T18:33:52.072Z,59.55
2023-01-19T18:36:19.925Z,60.18
2023-01-19T18:38:47.305Z,64.09
2023-01-19T18:41:17.231Z,67.82
2023-01-19T18:43:44.963Z,66.97
2023-01-19T18:46:12.972Z,64.26
2023-01-19T18:48:40.093Z,58.57
2023-01-19T18:51:08.874Z,54.57
2023-01-19T18:53:36.736Z,54.18
2023-01-19T18:56:04.195Z,54.93
2023-01-19T18:58:32.544Z,55.86
2023-01-19T19:01:00.679Z,56.77
2023-01-19T19:03:28.414Z,57.49
2023-01-19T19:05:56.061Z,58.69
2023-01-19T19:08:23.018Z,59.52
2023-01-19T19:10:49.783Z,60.25
2023-01-19T19:13:17.244Z,63.14
2023-01-19T19:15:44.367Z,66.27
2023-01-19T19:18:13.274Z,65.33
2023-01-19T19:20:42.433Z,63.26
2023-01-19T19:23:11.102Z,59.34
2023-01-19T19:25:38.231Z,56.84
2023-01-19T19:28:05.332Z,56.70
2023-01-19T19:30:34.032Z,57.47
2023-01-19T19:33:00.888Z,58.20
2023-01-19T19:35:37.728Z,59.13
2023-01-19T19:38:04.691Z,59.79
2023-01-19T19:40:31.731Z,60.73
2023-01-19T19:42:58.946Z,63.87
2023-01-19T19:45:26.365Z,67.26
2023-01-19T19:47:53.443Z,65.95
2023-01-19T19:50:20.167Z,63.88
2023-01-19T19:52:46.965Z,59.36
2023-01-19T19:55:13.752Z,56.11
2023-01-19T19:57:40.963Z,56.28
2023-01-19T20:00:08.517Z,57.11
2023-01-19T20:02:38.077Z,58.43
2023-01-19T20:05:05.681Z,59.41
2023-01-19T20:07:32.925Z,60.17
2023-01-19T20:09:59.900Z,63.58
2023-01-19T20:12:30.495Z,67.20
2023-01-19T20:15:20.696Z,66.65
2023-01-19T20:17:47.839Z,64.30
2023-01-19T20:20:15.231Z,59.60
2023-01-19T20:23:06.627Z,55.74
2023-01-19T20:25:38.481Z,55.44
2023-01-19T20:28:05.831Z,56.22
2023-01-19T20:30:32.887Z,57.28
2023-01-19T20:33:00.101Z,58.17
2023-01-19T20:35:28.117Z,59.33
2023-01-19T20:37:55.144Z,60.18
2023-01-19T20:40:40.832Z,64.05
2023-01-19T20:43:08.387Z,67.28
2023-01-19T20:45:35.357Z,65.82
2023-01-19T20:48:02.346Z,63.67
2023-01-19T20:50:29.324Z,59.86
2023-01-19T20:52:55.996Z,56.11
2023-01-19T20:55:22.784Z,55.84
2023-01-19T20:57:49.750Z,56.54
2023-01-19T21:00:17.011Z,57.31
2023-01-19T21:02:48.736Z,58.34
2023-01-19T21:05:17.421Z,59.25
2023-01-19T21:07:44.817Z,60.21
2023-01-19T21:10:11.641Z,63.52
2023-01-19T21:12:57.120Z,68.25
2023-01-19T21:15:24.003Z,66.89
2023-01-19T21:17:51.011Z,64.67
2023-01-19T21:20:18.802Z,60.32
2023-01-19T21:22:46.232Z,56.24
2023-01-19T21:25:32.020Z,55.48
2023-01-19T21:27:59.091Z,56.73
2023-01-19T21:30:26.158Z,57.50
2023-01-19T21:32:54.389Z,58.59
2023-01-19T21:35:21.353Z,59.54
2023-01-19T21:37:48.169Z,60.75
2023-01-19T21:40:15.103Z,63.89
2023-01-19T21:42:41.870Z,67.24
2023-01-19T21:45:09.133Z,66.39
2023-01-19T21:47:36.428Z,63.78
2023-01-19T21:50:04.203Z,59.54
2023-01-19T21:52:30.970Z,55.70
2023-01-19T21:54:58.012Z,55.63
2023-01-19T21:57:24.719Z,56.93
2023-01-19T21:59:51.600Z,57.37
2023-01-19T22:02:33.359Z,58.51
2023-01-19T22:05:10.061Z,59.15
2023-01-19T22:07:37.210Z,60.59
2023-01-19T22:10:05.184Z,63.21
2023-01-19T22:12:32.128Z,64.98
2023-01-19T22:15:01.780Z,63.67
2023-01-19T22:17:28.446Z,62.08
2023-01-19T22:19:55.417Z,58.39
2023-01-19T22:22:22.533Z,55.31
2023-01-19T22:24:50.133Z,55.18
2023-01-19T22:27:17.277Z,56.06
2023-01-19T22:29:44.169Z,56.86
2023-01-19T22:32:10.844Z,57.98
2023-01-19T22:34:37.496Z,59.58
2023-01-19T22:37:05.766Z,61.18
2023-01-19T22:39:33.951Z,63.50
2023-01-19T22:42:00.694Z,65.78
2023-01-19T22:44:27.450Z,64.76
2023-01-19T22:46:55.293Z,60.80
2023-01-19T22:49:22.351Z,56.70
2023-01-19T22:52:12.755Z,55.14
2023-01-19T22:54:39.405Z,55.75
2023-01-19T22:57:07.582Z,57.24
2023-01-19T22:59:34.493Z,58.09
2023-01-19T23:02:01.400Z,58.71
2023-01-19T23:04:28.281Z,59.27
2023-01-19T23:07:13.862Z,59.72
2023-01-19T23:09:40.597Z,60.81
2023-01-19T23:12:07.337Z,63.63
2023-01-19T23:14:35.614Z,66.85
2023-01-19T23:17:20.823Z,67.12
2023-01-19T23:19:47.488Z,64.10
2023-01-19T23:22:32.936Z,60.39
2023-01-19T23:24:59.953Z,56.31
2023-01-19T23:27:26.793Z,55.73
2023-01-19T23:29:53.492Z,56.10
2023-01-19T23:32:20.318Z,56.95
2023-01-19T23:34:47.321Z,57.62
2023-01-19T23:37:16.007Z,58.47
2023-01-19T23:40:01.585Z,58.70
2023-01-19T23:42:28.636Z,59.93
2023-01-19T23:45:14.304Z,60.33
2023-01-19T23:47:42.571Z,63.30
2023-01-19T23:50:10.111Z,66.87
2023-01-19T23:52:37.192Z,66.45
2023-01-19T23:55:04.888Z,64.08
2023-01-19T23:57:31.486Z,60.14
2023-01-19T23:59:58.241Z,56.22
